Time;durP1;ratioP1;P1;durP2;ratioP2;P2;SDS_P1;SDS_P2;PMS_P1;PMS_P2;Temp;Humidity;BMP_temperature;BMP_pressure;BME280_temperature;BME280_humidity;BME280_pressure;Samples;Min_cycle;Max_cycle;Signal;HPM_P1;HPM_P2
2021/05/10 00:02:20;;;;;;;1.92;1.73;;;24.20;44.00;;;;;;5012264;28;20030;-56
2021/05/10 00:04:45;;;;;;;1.75;1.50;;;24.10;43.90;;;;;;5012841;28;20018;-52
2021/05/10 00:07:11;;;;;;;2.10;1.90;;;24.10;44.00;;;;;;5014893;28;20049;-50
2021/05/10 00:09:37;;;;;;;3.13;1.60;;;24.10;44.00;;;;;;5012749;28;20368;-49
2021/05/10 00:12:04;;;;;;;2.40;1.90;;;24.10;44.00;;;;;;5011506;28;20456;-49
2021/05/10 00:14:44;;;;;;;2.08;1.50;;;24.20;44.10;;;;;;5013952;28;20037;-50
2021/05/10 00:17:10;;;;;;;2.13;1.70;;;24.10;44.10;;;;;;5013741;28;20030;-54
2021/05/10 00:19:37;;;;;;;3.10;1.95;;;24.10;44.10;;;;;;5011759;28;20030;-50
2021/05/10 00:22:03;;;;;;;1.73;1.63;;;24.10;44.20;;;;;;5012801;28;20076;-51
2021/05/10 00:24:29;;;;;;;2.80;1.65;;;24.10;44.20;;;;;;5013467;28;20033;-47
2021/05/10 00:26:55;;;;;;;2.40;1.70;;;24.10;44.20;;;;;;5008847;28;20030;-51
2021/05/10 00:29:21;;;;;;;1.80;1.63;;;24.10;44.20;;;;;;5013169;28;20038;-53
2021/05/10 00:31:47;;;;;;;2.80;1.70;;;24.10;44.20;;;;;;5010904;28;20041;-48
2021/05/10 00:34:14;;;;;;;1.52;1.42;;;24.10;44.90;;;;;;5013525;28;20042;-47
2021/05/10 00:36:40;;;;;;;1.67;1.58;;;24.10;44.20;;;;;;5012257;28;20026;-46
2021/05/10 00:39:06;;;;;;;2.42;1.73;;;24.10;44.20;;;;;;5011928;28;20038;-57
2021/05/10 00:41:33;;;;;;;2.83;1.90;;;24.10;44.30;;;;;;5013285;28;20041;-48
2021/05/10 00:43:59;;;;;;;1.92;1.73;;;24.00;44.20;;;;;;5012642;28;20119;-48
2021/05/10 00:46:25;;;;;;;2.22;2.03;;;24.00;44.30;;;;;;5014524;28;20068;-51
2021/05/10 00:48:51;;;;;;;2.28;1.73;;;24.00;44.30;;;;;;5010931;28;20041;-50
2021/05/10 00:51:17;;;;;;;2.05;1.65;;;24.00;44.30;;;;;;4994996;28;20045;-52
2021/05/10 00:53:43;;;;;;;1.77;1.65;;;24.00;44.30;;;;;;5009619;28;20076;-48
2021/05/10 00:56:10;;;;;;;2.67;1.88;;;24.00;44.30;;;;;;5013977;28;20030;-51
2021/05/10 00:58:37;;;;;;;1.70;1.60;;;24.00;44.40;;;;;;5012877;28;20038;-52
2021/05/10 01:01:03;;;;;;;1.73;1.52;;;24.00;44.40;;;;;;5011000;28;20036;-49
2021/05/10 01:03:29;;;;;;;2.38;1.80;;;24.00;44.40;;;;;;5012488;28;20336;-51
2021/05/10 01:05:55;;;;;;;1.55;1.38;;;24.00;44.40;;;;;;5010796;28;20121;-49
2021/05/10 01:08:21;;;;;;;1.90;1.55;;;24.00;44.40;;;;;;5009756;28;20109;-50
2021/05/10 01:10:47;;;;;;;2.65;1.63;;;24.00;44.40;;;;;;5008497;28;20038;-49
2021/05/10 01:13:13;;;;;;;2.47;1.85;;;24.00;44.40;;;;;;5011470;28;20026;-56
2021/05/10 01:15:40;;;;;;;2.35;1.73;;;24.00;44.40;;;;;;5013588;28;20030;-48
2021/05/10 01:18:06;;;;;;;1.55;1.45;;;24.00;44.40;;;;;;5014148;28;20044;-51
2021/05/10 01:20:34;;;;;;;1.45;1.35;;;24.00;44.50;;;;;;5013410;28;20033;-51
2021/05/10 01:23:00;;;;;;;1.70;1.60;;;24.00;44.50;;;;;;5012902;28;20021;-50
2021/05/10 01:25:31;;;;;;;2.58;1.85;;;24.00;44.50;;;;;;5013493;28;20346;-50
2021/05/10 01:27:59;;;;;;;2.20;1.25;;;24.00;44.50;;;;;;5011920;28;20398;-52
2021/05/10 01:30:36;;;;;;;1.90;1.70;;;24.00;44.50;;;;;;5010607;28;20363;-55
2021/05/10 01:33:04;;;;;;;1.85;1.48;;;24.00;44.50;;;;;;5005847;28;20477;-49
2021/05/10 01:35:33;;;;;;;2.33;1.65;;;23.90;44.50;;;;;;5014363;28;20438;-53
2021/05/10 01:38:00;;;;;;;2.10;1.50;;;23.90;44.50;;;;;;5009337;28;20452;-48
2021/05/10 01:40:27;;;;;;;2.08;1.45;;;23.90;44.40;;;;;;5010809;28;20037;-53
2021/05/10 01:42:53;;;;;;;2.25;1.50;;;23.90;44.40;;;;;;5010836;28;20033;-48
2021/05/10 01:45:19;;;;;;;1.83;1.30;;;23.90;44.40;;;;;;5013053;28;20024;-47
2021/05/10 01:47:45;;;;;;;1.80;1.33;;;23.90;44.30;;;;;;5010287;28;20022;-52
2021/05/10 01:50:20;;;;;;;1.75;1.33;;;23.90;44.30;;;;;;5010902;28;20022;-48
2021/05/10 01:52:48;;;;;;;1.98;1.40;;;23.90;44.30;;;;;;5000330;28;20103;-46
2021/05/10 01:55:15;;;;;;;1.40;1.25;;;23.90;44.30;;;;;;5011966;28;20021;-51
2021/05/10 01:57:47;;;;;;;1.65;1.55;;;23.90;44.20;;;;;;5013465;28;20022;-52
2021/05/10 02:00:16;;;;;;;1.52;1.20;;;23.90;44.20;;;;;;5010652;28;20108;-48
2021/05/10 02:02:43;;;;;;;1.83;1.30;;;23.90;44.20;;;;;;5012673;28;20485;-52
2021/05/10 02:05:09;;;;;;;2.83;1.33;;;23.90;44.10;;;;;;5010872;28;20353;-53
2021/05/10 02:07:43;;;;;;;1.50;1.10;;;23.90;44.10;;;;;;5009349;28;20766;-48
2021/05/10 02:10:37;;;;;;;2.13;1.57;;;23.90;44.10;;;;;;5008119;28;20104;-48
2021/05/10 02:13:06;;;;;;;;;;;23.90;44.00;;;;;;5005229;28;20076;-53
2021/05/10 02:15:33;;;;;;;1.25;1.15;;;23.80;44.00;;;;;;5013040;28;19909;-51
2021/05/10 02:18:00;;;;;;;1.30;1.10;;;23.90;44.10;;;;;;5013014;28;20030;-48
2021/05/10 02:20:27;;;;;;;2.00;1.67;;;23.80;44.00;;;;;;5011132;28;20487;-54
2021/05/10 02:22:59;;;;;;;1.67;1.13;;;23.80;44.00;;;;;;5015675;28;20030;-51
2021/05/10 02:25:27;;;;;;;1.58;1.25;;;23.90;44.10;;;;;;5014298;28;20454;-48
2021/05/10 02:27:53;;;;;;;2.15;1.38;;;23.80;44.00;;;;;;5005748;28;20034;-51
2021/05/10 02:30:21;;;;;;;1.35;1.25;;;23.80;43.90;;;;;;5015279;28;20101;-50
2021/05/10 02:32:47;;;;;;;1.38;1.23;;;23.80;43.90;;;;;;5015981;28;20689;-50
2021/05/10 02:35:14;;;;;;;2.65;1.10;;;23.80;43.80;;;;;;5015481;28;20025;-49
2021/05/10 02:37:41;;;;;;;1.60;1.23;;;23.80;43.80;;;;;;5013834;28;20026;-48
2021/05/10 02:40:08;;;;;;;1.52;1.17;;;23.80;43.70;;;;;;5013590;28;20033;-51
2021/05/10 02:42:34;;;;;;;1.23;1.10;;;23.80;43.60;;;;;;5011634;28;20067;-49
2021/05/10 02:45:00;;;;;;;1.50;0.90;;;23.80;43.70;;;;;;5014449;28;20037;-52
2021/05/10 02:47:26;;;;;;;1.10;1.00;;;23.80;43.60;;;;;;5014619;28;20037;-49
2021/05/10 02:49:53;;;;;;;1.95;1.35;;;23.80;43.60;;;;;;5013632;28;20353;-52
2021/05/10 02:52:19;;;;;;;1.45;1.08;;;23.80;43.60;;;;;;5013220;28;20095;-49
2021/05/10 02:54:45;;;;;;;1.15;0.90;;;23.80;43.60;;;;;;5014716;28;20049;-50
2021/05/10 02:57:11;;;;;;;1.27;1.10;;;23.80;43.50;;;;;;5012636;28;20040;-48
2021/05/10 02:59:37;;;;;;;2.03;1.30;;;23.80;43.50;;;;;;5012553;28;20022;-50
2021/05/10 03:02:03;;;;;;;2.08;1.10;;;23.80;43.40;;;;;;5014737;28;20092;-49
2021/05/10 03:04:29;;;;;;;1.85;1.25;;;23.80;43.40;;;;;;5014962;28;20022;-51
2021/05/10 03:06:55;;;;;;;1.27;1.00;;;23.80;43.30;;;;;;5015857;28;20054;-51
2021/05/10 03:09:21;;;;;;;2.33;1.08;;;23.80;43.30;;;;;;5014781;28;20057;-52
2021/05/10 03:11:46;;;;;;;1.20;0.90;;;23.80;43.20;;;;;;5012898;28;20119;-50
2021/05/10 03:14:13;;;;;;;1.52;0.90;;;23.80;43.20;;;;;;5012825;28;20048;-53
2021/05/10 03:16:39;;;;;;;1.58;1.20;;;23.70;43.10;;;;;;5014657;28;20029;-46
2021/05/10 03:19:09;;;;;;;1.70;1.15;;;23.70;43.10;;;;;;5014889;28;20088;-50
2021/05/10 03:21:39;;;;;;;1.98;1.30;;;23.70;43.10;;;;;;5008890;28;20555;-49
2021/05/10 03:24:06;;;;;;;1.80;1.27;;;23.70;43.10;;;;;;5013854;28;20118;-52
2021/05/10 03:26:33;;;;;;;1.33;1.23;;;23.70;43.10;;;;;;5004284;28;20144;-48
2021/05/10 03:29:00;;;;;;;1.83;1.10;;;23.70;43.10;;;;;;5015227;28;20311;-52
2021/05/10 03:31:26;;;;;;;1.90;1.00;;;23.80;43.20;;;;;;5012183;28;20121;-50
2021/05/10 03:33:51;;;;;;;2.25;1.17;;;23.70;43.10;;;;;;5014463;28;20132;-50
2021/05/10 03:36:17;;;;;;;0.82;0.82;;;23.70;43.10;;;;;;5011077;28;20044;-48
2021/05/10 03:38:43;;;;;;;1.67;0.90;;;23.70;43.00;;;;;;5014806;28;20400;-48
2021/05/10 03:41:09;;;;;;;0.75;0.65;;;23.70;43.60;;;;;;5012617;28;20429;-53
2021/05/10 03:43:35;;;;;;;1.67;1.00;;;23.70;42.90;;;;;;5015486;28;20041;-52
2021/05/10 03:46:00;;;;;;;0.85;0.85;;;23.70;42.80;;;;;;5011659;28;20049;-49
2021/05/10 03:48:26;;;;;;;1.42;0.85;;;23.70;42.70;;;;;;5013094;28;20030;-54
2021/05/10 03:50:52;;;;;;;1.10;0.80;;;23.70;42.70;;;;;;5011515;28;20041;-52
2021/05/10 03:53:19;;;;;;;1.67;1.00;;;23.70;42.60;;;;;;5012605;28;20042;-50
2021/05/10 03:55:45;;;;;;;2.15;1.10;;;23.70;42.50;;;;;;5012757;28;20582;-50
2021/05/10 03:58:11;;;;;;;0.80;0.80;;;23.70;42.50;;;;;;5014438;28;20436;-56
2021/05/10 04:00:37;;;;;;;0.70;0.70;;;23.60;42.30;;;;;;5015114;28;20037;-55
2021/05/10 04:03:04;;;;;;;1.23;1.00;;;23.70;42.30;;;;;;5013812;28;20046;-53
2021/05/10 04:16:00;;;;;;;0.70;0.70;;;23.60;42.10;;;;;;5013292;28;20460;-47
2021/05/10 04:18:26;;;;;;;0.90;0.68;;;23.60;42.00;;;;;;5011934;28;20044;-51
2021/05/10 04:20:52;;;;;;;1.10;0.68;;;23.60;41.80;;;;;;5010353;28;20057;-51
2021/05/10 04:23:19;;;;;;;0.93;0.70;;;23.60;41.80;;;;;;5013017;28;20026;-46
2021/05/10 04:25:47;;;;;;;1.23;0.80;;;23.60;41.70;;;;;;5012657;28;20029;-49
2021/05/10 04:28:13;;;;;;;2.22;0.60;;;23.60;41.70;;;;;;5014307;28;20042;-48
2021/05/10 04:30:40;;;;;;;2.15;0.60;;;23.60;41.50;;;;;;5013583;28;20029;-52
2021/05/10 04:33:06;;;;;;;0.95;0.70;;;23.60;41.50;;;;;;5013071;28;20433;-49
2021/05/10 04:35:33;;;;;;;1.70;0.60;;;23.60;41.40;;;;;;5011719;28;20037;-51
2021/05/10 04:38:01;;;;;;;1.30;0.50;;;23.60;41.30;;;;;;5014035;28;20504;-49
2021/05/10 04:40:27;;;;;;;1.20;0.63;;;23.60;41.20;;;;;;5011371;28;20041;-52
2021/05/10 04:42:52;;;;;;;0.63;0.60;;;23.60;41.10;;;;;;5010072;28;20446;-52
2021/05/10 04:45:18;;;;;;;0.68;0.65;;;23.60;41.10;;;;;;5012138;28;20029;-50
2021/05/10 04:47:46;;;;;;;1.95;0.73;;;23.60;41.00;;;;;;5013530;28;20096;-47
2021/05/10 04:50:13;;;;;;;1.23;0.80;;;23.60;41.00;;;;;;5011063;28;20045;-54
2021/05/10 04:52:39;;;;;;;0.82;0.70;;;23.60;40.90;;;;;;5011389;28;20022;-51
2021/05/10 04:55:07;;;;;;;0.80;0.50;;;23.60;40.80;;;;;;5012681;28;20464;-47
2021/05/10 04:57:33;;;;;;;2.28;0.50;;;23.60;40.70;;;;;;5012439;28;20030;-48
2021/05/10 04:59:59;;;;;;;0.95;0.52;;;23.60;40.70;;;;;;5014036;28;20365;-46
2021/05/10 05:02:26;;;;;;;0.75;0.50;;;23.60;40.70;;;;;;5012516;28;20100;-50
2021/05/10 05:04:51;;;;;;;0.90;0.60;;;23.60;40.60;;;;;;5011388;28;20394;-48
2021/05/10 05:07:17;;;;;;;1.25;0.60;;;23.60;40.50;;;;;;5006909;28;20086;-49
2021/05/10 05:09:43;;;;;;;1.17;0.68;;;23.60;40.50;;;;;;5014857;28;20061;-49
2021/05/10 05:12:09;;;;;;;1.08;0.63;;;23.60;40.50;;;;;;5011717;28;20040;-49
2021/05/10 05:14:35;;;;;;;1.20;0.70;;;23.60;40.60;;;;;;5012669;28;20041;-48
2021/05/10 05:17:01;;;;;;;0.77;0.65;;;23.60;40.50;;;;;;5012739;28;20073;-48
2021/05/10 05:19:27;;;;;;;2.25;0.60;;;23.60;40.40;;;;;;5013434;28;20053;-51
2021/05/10 05:21:53;;;;;;;1.77;0.70;;;23.60;40.40;;;;;;5011514;28;20492;-51
2021/05/10 05:24:18;;;;;;;1.10;0.63;;;23.60;40.40;;;;;;5009707;28;20386;-52
2021/05/10 05:26:44;;;;;;;1.88;0.55;;;23.60;40.40;;;;;;5010109;28;20120;-54
2021/05/10 05:29:10;;;;;;;0.93;0.60;;;23.60;40.40;;;;;;5008970;28;20061;-54
2021/05/10 05:31:36;;;;;;;0.93;0.60;;;23.60;40.40;;;;;;5011621;28;20037;-51
2021/05/10 05:34:03;;;;;;;1.33;0.73;;;23.60;40.40;;;;;;5013687;28;20048;-51
2021/05/10 05:36:29;;;;;;;0.82;0.50;;;23.60;40.50;;;;;;5011321;28;20065;-47
2021/05/10 05:38:55;;;;;;;0.57;0.43;;;23.60;40.50;;;;;;5008062;28;20478;-51
2021/05/10 05:41:21;;;;;;;0.82;0.60;;;23.60;40.60;;;;;;5010770;28;20026;-49
2021/05/10 05:43:47;;;;;;;1.30;0.60;;;23.60;40.60;;;;;;5011522;28;20473;-55
2021/05/10 05:46:21;;;;;;;0.88;0.60;;;23.60;40.70;;;;;;5012909;28;20026;-54
2021/05/10 05:48:46;;;;;;;1.45;0.60;;;23.70;40.70;;;;;;5011194;28;20040;-51
2021/05/10 05:51:12;;;;;;;0.63;0.55;;;23.60;40.80;;;;;;5008953;28;20030;-53
2021/05/10 05:53:39;;;;;;;0.90;0.60;;;23.60;40.90;;;;;;5008307;28;20136;-50
2021/05/10 05:56:05;;;;;;;1.60;0.75;;;23.60;40.90;;;;;;5016629;28;20030;-49
2021/05/10 05:58:31;;;;;;;0.50;0.50;;;23.60;40.90;;;;;;5015323;28;20160;-50
2021/05/10 06:00:57;;;;;;;0.70;0.65;;;23.60;41.00;;;;;;5006090;28;20338;-49
2021/05/10 06:03:23;;;;;;;1.27;0.70;;;23.60;41.10;;;;;;5016623;28;20022;-56
2021/05/10 06:05:49;;;;;;;0.90;0.47;;;23.60;41.10;;;;;;5007599;28;20337;-54
2021/05/10 06:08:15;;;;;;;0.68;0.50;;;23.60;41.20;;;;;;5013342;28;20045;-53
2021/05/10 06:10:41;;;;;;;0.38;0.30;;;23.60;41.30;;;;;;5013233;28;20022;-50
2021/05/10 06:13:09;;;;;;;0.60;0.40;;;23.60;41.30;;;;;;5012261;28;20037;-49
2021/05/10 06:15:35;;;;;;;0.47;0.40;;;23.60;41.30;;;;;;5009852;28;20029;-49
2021/05/10 06:18:01;;;;;;;1.38;0.43;;;23.60;41.40;;;;;;5011927;28;20037;-55
2021/05/10 06:20:27;;;;;;;0.40;0.40;;;23.60;41.40;;;;;;5012449;28;20199;-53
2021/05/10 06:22:54;;;;;;;0.40;0.40;;;23.70;41.40;;;;;;5014742;28;20084;-50
2021/05/10 06:25:20;;;;;;;0.43;0.43;;;23.70;41.40;;;;;;5012669;28;20033;-55
2021/05/10 06:27:46;;;;;;;1.35;0.40;;;23.70;41.50;;;;;;5009102;28;20037;-53
2021/05/10 06:30:13;;;;;;;0.88;0.40;;;23.70;41.50;;;;;;5013057;28;20373;-53
2021/05/10 06:32:40;;;;;;;0.50;0.32;;;23.70;41.50;;;;;;5007477;28;20030;-54
2021/05/10 06:35:07;;;;;;;1.13;0.55;;;23.80;41.50;;;;;;5007648;28;20338;-50
2021/05/10 06:37:34;;;;;;;0.40;0.35;;;23.70;41.50;;;;;;5007989;28;20038;-52
2021/05/10 06:40:00;;;;;;;0.50;0.40;;;23.80;41.60;;;;;;5009738;28;20131;-52
2021/05/10 06:42:27;;;;;;;0.60;0.50;;;23.80;41.60;;;;;;5014688;28;20056;-50
2021/05/10 06:44:54;;;;;;;1.33;0.40;;;23.80;41.60;;;;;;5009126;28;20434;-52
2021/05/10 06:47:20;;;;;;;1.65;0.57;;;23.80;41.50;;;;;;5011016;28;20100;-51
2021/05/10 06:49:46;;;;;;;0.77;0.43;;;23.80;41.50;;;;;;5011281;28;20113;-55
2021/05/10 06:52:11;;;;;;;0.85;0.50;;;23.70;41.40;;;;;;5010491;28;20044;-50
2021/05/10 06:54:37;;;;;;;1.42;0.60;;;23.80;41.40;;;;;;5010430;28;20069;-52
2021/05/10 06:57:03;;;;;;;1.92;0.60;;;23.80;41.40;;;;;;5010784;28;20025;-53
2021/05/10 06:59:29;;;;;;;1.17;0.52;;;23.80;41.30;;;;;;5006615;28;20146;-51
2021/05/10 07:01:55;;;;;;;1.23;0.60;;;23.80;41.30;;;;;;5012186;28;20044;-55
2021/05/10 07:04:21;;;;;;;1.35;0.60;;;23.80;41.40;;;;;;5006089;28;20129;-54
2021/05/10 07:06:46;;;;;;;1.50;0.47;;;23.90;41.50;;;;;;5003586;28;22516;-55
2021/05/10 07:09:12;;;;;;;1.10;0.50;;;23.90;41.50;;;;;;5007964;28;20464;-56
2021/05/10 07:11:38;;;;;;;0.88;0.50;;;23.90;41.40;;;;;;5011400;28;20037;-56
2021/05/10 07:14:04;;;;;;;0.63;0.38;;;23.90;41.30;;;;;;5010587;28;20580;-54
2021/05/10 07:16:31;;;;;;;2.05;0.63;;;24.00;41.30;;;;;;5009207;28;20602;-55
2021/05/10 07:18:57;;;;;;;0.43;0.30;;;24.00;41.20;;;;;;5009672;28;20041;-56
2021/05/10 07:21:23;;;;;;;0.32;0.30;;;24.00;41.10;;;;;;5009915;28;20034;-56
2021/05/10 07:23:50;;;;;;;1.38;0.65;;;24.00;41.00;;;;;;5013254;28;20362;-52
2021/05/10 07:26:16;;;;;;;0.98;0.40;;;24.10;41.60;;;;;;5009108;28;20061;-57
2021/05/10 07:28:42;;;;;;;0.30;0.30;;;24.10;40.90;;;;;;5009697;28;20053;-53
2021/05/10 07:31:08;;;;;;;0.82;0.50;;;24.10;40.90;;;;;;5006753;28;20026;-58
2021/05/10 07:33:34;;;;;;;1.63;0.63;;;24.10;40.80;;;;;;5006402;28;20124;-55
2021/05/10 07:36:00;;;;;;;0.57;0.47;;;24.20;40.80;;;;;;5007153;28;20022;-52
2021/05/10 07:38:26;;;;;;;1.02;0.57;;;24.20;40.70;;;;;;5006133;28;20048;-52
2021/05/10 07:40:52;;;;;;;1.10;0.45;;;24.20;40.60;;;;;;5005090;28;20030;-54
2021/05/10 07:43:18;;;;;;;0.82;0.50;;;24.20;40.60;;;;;;5010513;28;20065;-51
2021/05/10 07:45:44;;;;;;;2.25;0.70;;;24.20;40.50;;;;;;5007154;28;20053;-57
2021/05/10 07:48:09;;;;;;;2.22;0.80;;;24.20;40.40;;;;;;5006222;28;20056;-54
2021/05/10 07:50:35;;;;;;;2.72;1.00;;;24.30;40.40;;;;;;5008964;28;20029;-52
2021/05/10 07:53:01;;;;;;;1.40;0.60;;;24.30;40.40;;;;;;5007295;28;20025;-58
2021/05/10 07:55:27;;;;;;;1.33;0.80;;;24.30;40.40;;;;;;5007089;28;20056;-52
2021/05/10 07:57:53;;;;;;;1.42;0.80;;;24.30;40.40;;;;;;5009347;28;20181;-54
2021/05/10 08:00:27;;;;;;;1.33;0.90;;;24.30;40.40;;;;;;5007724;28;20037;-51
2021/05/10 08:02:54;;;;;;;2.95;0.98;;;24.30;40.40;;;;;;5006116;28;20037;-49
2021/05/10 08:05:20;;;;;;;2.55;0.90;;;24.40;40.40;;;;;;5003839;28;20389;-54
2021/05/10 08:07:47;;;;;;;1.10;0.70;;;24.40;40.40;;;;;;5005730;28;20076;-48
2021/05/10 08:10:13;;;;;;;1.85;0.65;;;24.40;40.40;;;;;;5004873;28;20030;-50
2021/05/10 08:12:39;;;;;;;0.70;0.63;;;24.40;40.40;;;;;;5007716;28;20029;-49
2021/05/10 08:15:06;;;;;;;2.97;0.90;;;24.40;40.40;;;;;;5011253;28;20397;-47
2021/05/10 08:17:35;;;;;;;3.72;0.82;;;24.40;40.40;;;;;;5007497;28;20044;-47
2021/05/10 08:20:04;;;;;;;1.70;1.15;;;24.40;40.40;;;;;;5008506;28;20038;-47
2021/05/10 08:22:30;;;;;;;1.58;0.70;;;24.40;40.40;;;;;;5013065;28;20120;-48
2021/05/10 08:24:55;;;;;;;1.55;0.90;;;24.40;40.40;;;;;;5008664;28;20168;-52
2021/05/10 08:27:21;;;;;;;0.68;0.57;;;24.40;40.40;;;;;;5009826;28;20038;-49
2021/05/10 08:29:47;;;;;;;2.70;1.00;;;24.40;40.50;;;;;;5010250;28;20045;-46
2021/05/10 08:32:13;;;;;;;1.25;0.80;;;24.40;40.50;;;;;;5008367;28;20029;-50
2021/05/10 08:34:38;;;;;;;1.08;0.75;;;24.40;40.50;;;;;;5010005;28;20045;-51
2021/05/10 08:37:04;;;;;;;1.92;0.68;;;24.40;40.50;;;;;;5009680;28;20037;-45
2021/05/10 08:39:30;;;;;;;1.55;0.70;;;24.40;40.50;;;;;;5009612;28;20026;-47
2021/05/10 08:41:55;;;;;;;1.88;0.63;;;24.50;40.60;;;;;;5008045;28;20063;-51
2021/05/10 08:44:22;;;;;;;0.88;0.63;;;24.40;40.50;;;;;;5009519;28;20033;-49
2021/05/10 08:46:48;;;;;;;1.90;0.70;;;24.40;40.50;;;;;;5007430;28;20030;-50
2021/05/10 08:49:18;;;;;;;1.33;0.68;;;24.40;40.60;;;;;;5008604;28;20096;-50
2021/05/10 08:51:44;;;;;;;1.15;0.60;;;24.40;40.60;;;;;;5008992;28;20606;-50
2021/05/10 08:54:21;;;;;;;1.17;0.80;;;24.40;40.70;;;;;;5010200;28;20034;-47
2021/05/10 08:56:47;;;;;;;0.95;0.55;;;24.40;40.70;;;;;;5010945;28;20069;-45
2021/05/10 08:59:13;;;;;;;1.67;0.60;;;24.40;40.70;;;;;;5011490;28;20026;-53
2021/05/10 09:02:05;;;;;;;0.77;0.60;;;24.40;40.80;;;;;;5008721;28;20053;-49
2021/05/10 09:04:39;;;;;;;0.70;0.50;;;24.50;40.90;;;;;;5006594;28;20088;-50
2021/05/10 09:07:17;;;;;;;1.27;0.50;;;24.40;40.80;;;;;;5009788;28;20540;-49
2021/05/10 09:09:52;;;;;;;1.20;0.75;;;24.40;40.80;;;;;;5009545;28;20112;-50
2021/05/10 09:12:21;;;;;;;1.77;0.60;;;24.50;40.90;;;;;;5010050;28;20025;-58
2021/05/10 09:14:47;;;;;;;1.17;0.55;;;24.40;40.80;;;;;;5008942;28;20041;-64
2021/05/10 09:17:13;;;;;;;1.35;0.60;;;24.40;40.70;;;;;;5010418;28;20025;-49
2021/05/10 09:19:51;;;;;;;0.35;0.30;;;24.40;40.70;;;;;;5008169;28;20030;-54
2021/05/10 09:22:18;;;;;;;0.75;0.52;;;24.40;40.60;;;;;;5007474;28;20036;-47
2021/05/10 09:24:52;;;;;;;0.30;0.25;;;24.40;40.60;;;;;;5006750;28;20124;-47
2021/05/10 09:27:24;;;;;;;0.60;0.50;;;24.40;40.50;;;;;;5008905;28;20127;-47
2021/05/10 09:29:52;;;;;;;0.32;0.32;;;24.50;40.60;;;;;;5006848;28;20564;-48
2021/05/10 09:32:28;;;;;;;0.30;0.30;;;24.50;40.60;;;;;;5008495;28;20099;-48
2021/05/10 09:35:19;;;;;;;0.38;0.38;;;24.50;40.50;;;;;;4998537;28;20474;-47
2021/05/10 09:37:51;;;;;;;0.52;0.30;;;24.50;40.40;;;;;;5004967;28;20030;-50
2021/05/10 09:40:17;;;;;;;0.50;0.40;;;24.50;40.50;;;;;;5007747;28;20545;-53
2021/05/10 09:42:50;;;;;;;0.80;0.60;;;24.50;40.40;;;;;;5010737;28;20155;-48
2021/05/10 09:45:38;;;;;;;1.10;0.50;;;24.50;40.40;;;;;;5005857;28;20537;-48
2021/05/10 09:48:09;;;;;;;0.50;0.40;;;24.50;40.30;;;;;;5005277;28;21762;-50
2021/05/10 09:50:43;;;;;;;1.25;0.45;;;24.50;40.30;;;;;;5003849;28;20030;-50
2021/05/10 09:53:12;;;;;;;;;;;24.50;40.30;;;;;;5004594;28;20464;-48
2021/05/10 09:55:52;;;;;;;0.60;0.50;;;24.50;40.30;;;;;;5002999;28;20055;-45
2021/05/10 09:58:20;;;;;;;0.63;0.40;;;24.60;40.30;;;;;;5004205;28;20037;-46
2021/05/10 10:00:57;;;;;;;1.60;0.50;;;24.60;40.30;;;;;;5006769;28;20445;-49
2021/05/10 10:03:29;;;;;;;0.77;0.50;;;24.50;40.20;;;;;;5005363;28;20079;-48
2021/05/10 10:06:02;;;;;;;0.75;0.50;;;24.60;40.30;;;;;;5004750;28;20030;-49
2021/05/10 10:08:28;;;;;;;0.50;0.50;;;24.60;40.30;;;;;;5003288;28;20053;-49
2021/05/10 10:10:57;;;;;;;0.63;0.40;;;24.60;40.30;;;;;;5005663;28;20369;-50
2021/05/10 10:13:23;;;;;;;0.73;0.52;;;24.60;40.30;;;;;;5005199;28;20034;-47
2021/05/10 10:15:50;;;;;;;1.13;0.50;;;24.60;40.30;;;;;;5007705;28;20041;-49
2021/05/10 10:18:20;;;;;;;0.50;0.50;;;24.60;40.30;;;;;;5005803;28;20113;-46
2021/05/10 10:20:47;;;;;;;0.90;0.55;;;24.60;40.30;;;;;;5005098;28;20030;-47
2021/05/10 10:23:15;;;;;;;0.60;0.40;;;24.60;40.40;;;;;;5003479;28;20466;-47
2021/05/10 10:25:41;;;;;;;0.40;0.35;;;24.60;40.40;;;;;;5006662;28;20025;-49
2021/05/10 10:28:08;;;;;;;0.50;0.47;;;24.60;40.40;;;;;;5004158;28;20030;-49
2021/05/10 10:30:39;;;;;;;0.82;0.50;;;24.60;40.40;;;;;;5006778;28;20115;-48
2021/05/10 10:33:23;;;;;;;1.02;0.65;;;24.70;40.50;;;;;;5005857;28;20070;-46
2021/05/10 10:35:49;;;;;;;0.60;0.43;;;24.60;40.50;;;;;;5004839;28;20033;-45
2021/05/10 10:38:25;;;;;;;0.60;0.50;;;24.60;40.50;;;;;;5004544;28;20120;-46
2021/05/10 10:41:25;;;;;;;0.80;0.50;;;24.60;40.50;;;;;;5006608;28;20041;-50
2021/05/10 10:43:52;;;;;;;1.08;0.40;;;24.60;40.60;;;;;;4968272;28;20037;-48
2021/05/10 10:46:17;;;;;;;0.30;0.30;;;24.60;40.60;;;;;;5007449;28;20104;-48
2021/05/10 10:48:44;;;;;;;0.68;0.60;;;24.60;40.60;;;;;;5005115;28;20026;-47
2021/05/10 10:51:13;;;;;;;0.98;0.55;;;24.60;40.60;;;;;;5009124;28;20026;-48
2021/05/10 10:53:47;;;;;;;1.30;0.70;;;24.60;40.60;;;;;;5009179;28;20041;-44
2021/05/10 10:56:14;;;;;;;0.50;0.50;;;24.60;40.70;;;;;;5007108;28;20034;-47
2021/05/10 10:58:44;;;;;;;0.30;0.30;;;24.60;40.70;;;;;;5009524;28;20045;-46
2021/05/10 11:01:12;;;;;;;0.30;0.30;;;24.60;40.70;;;;;;5008073;28;20120;-54
2021/05/10 11:03:39;;;;;;;0.82;0.57;;;24.60;40.70;;;;;;5009446;28;20049;-48
2021/05/10 11:06:07;;;;;;;0.57;0.30;;;24.60;40.80;;;;;;5005995;28;20018;-50
2021/05/10 11:08:53;;;;;;;0.45;0.40;;;24.60;40.80;;;;;;5003935;28;20056;-52
2021/05/10 11:11:32;;;;;;;0.50;0.40;;;24.60;40.90;;;;;;5006096;28;20041;-48
2021/05/10 11:13:59;;;;;;;1.08;0.50;;;24.60;41.00;;;;;;5007029;28;20195;-48
2021/05/10 11:16:51;;;;;;;0.80;0.50;;;24.60;41.00;;;;;;5006229;28;20064;-45
2021/05/10 11:19:31;;;;;;;0.65;0.35;;;24.60;41.20;;;;;;5010339;28;20029;-48
2021/05/10 11:21:58;;;;;;;0.40;0.40;;;24.60;41.20;;;;;;5006000;28;20026;-49
2021/05/10 11:24:30;;;;;;;0.60;0.47;;;24.60;41.30;;;;;;5007946;28;20029;-46
2021/05/10 11:27:01;;;;;;;0.55;0.50;;;24.60;41.40;;;;;;5008576;28;20052;-49
2021/05/10 11:29:27;;;;;;;0.43;0.40;;;24.60;41.40;;;;;;5009722;28;20084;-53
2021/05/10 11:32:19;;;;;;;0.65;0.40;;;24.60;41.50;;;;;;5008961;28;20083;-51
2021/05/10 11:34:46;;;;;;;0.60;0.40;;;24.60;41.50;;;;;;5007451;28;20038;-49
2021/05/10 11:37:15;;;;;;;2.45;0.60;;;24.60;41.60;;;;;;5008419;28;20448;-55
2021/05/10 11:39:42;;;;;;;7.88;0.73;;;24.60;41.70;;;;;;5010443;28;20461;-54
2021/05/10 11:42:10;;;;;;;0.50;0.30;;;24.60;41.90;;;;;;5003440;28;20366;-51
2021/05/10 11:44:38;;;;;;;4.68;0.50;;;24.60;42.00;;;;;;5007875;28;20532;-58
2021/05/10 11:47:10;;;;;;;0.70;0.20;;;24.60;42.00;;;;;;5005709;28;20091;-57
2021/05/10 11:49:40;;;;;;;1.05;0.35;;;24.70;42.00;;;;;;5006421;28;20049;-55
2021/05/10 11:52:10;;;;;;;0.40;0.30;;;24.70;42.00;;;;;;5007413;28;20438;-57
2021/05/10 11:54:40;;;;;;;1.00;0.40;;;24.70;42.10;;;;;;5012204;28;20135;-56
2021/05/10 11:57:08;;;;;;;0.50;0.40;;;24.60;42.00;;;;;;5008033;28;20025;-54
2021/05/10 11:59:41;;;;;;;0.20;0.20;;;24.60;42.00;;;;;;5009167;28;20441;-55
2021/05/10 12:02:10;;;;;;;0.90;0.20;;;24.60;42.10;;;;;;5005025;28;20030;-54
2021/05/10 12:04:38;;;;;;;0.77;0.30;;;24.60;42.10;;;;;;5006119;28;20045;-53
2021/05/10 12:07:04;;;;;;;0.30;0.30;;;24.60;42.10;;;;;;5007050;28;20516;-51
2021/05/10 12:09:49;;;;;;;0.40;0.20;;;24.60;42.20;;;;;;5007437;28;20065;-53
2021/05/10 12:12:18;;;;;;;0.35;0.30;;;24.60;42.20;;;;;;5007486;28;20038;-52
2021/05/10 12:14:49;;;;;;;0.25;0.20;;;24.60;42.20;;;;;;5006102;28;20057;-52
2021/05/10 12:17:24;;;;;;;0.40;0.22;;;24.60;42.20;;;;;;5009765;28;20029;-55
2021/05/10 12:19:51;;;;;;;0.20;0.20;;;24.60;42.20;;;;;;5006807;28;20030;-52
2021/05/10 12:22:18;;;;;;;1.17;0.40;;;24.60;42.20;;;;;;5006832;28;20026;-54
2021/05/10 12:25:00;;;;;;;0.30;0.20;;;24.60;42.30;;;;;;5008551;28;20038;-50
2021/05/10 12:27:31;;;;;;;0.20;0.20;;;24.60;42.30;;;;;;5010556;28;20030;-50
2021/05/10 12:29:58;;;;;;;0.55;0.30;;;24.60;42.40;;;;;;5005108;28;20091;-57
2021/05/10 12:32:24;;;;;;;0.20;0.20;;;24.60;42.40;;;;;;5004710;28;20040;-56
2021/05/10 12:34:52;;;;;;;0.10;0.10;;;24.60;42.50;;;;;;5006966;28;20045;-55
2021/05/10 12:37:18;;;;;;;0.70;0.20;;;24.60;42.60;;;;;;5003727;28;20035;-51
2021/05/10 12:39:45;;;;;;;0.65;0.35;;;24.60;42.70;;;;;;5005537;28;20141;-48
2021/05/10 12:42:19;;;;;;;0.45;0.45;;;24.60;42.80;;;;;;5003323;28;20030;-47
2021/05/10 12:45:05;;;;;;;;;;;24.60;42.90;;;;;;5007483;28;20428;-55
2021/05/10 12:47:40;;;;;;;;;;;24.60;42.90;;;;;;5006617;28;19924;-52
2021/05/10 12:50:07;;;;;;;0.57;0.35;;;24.60;42.90;;;;;;5008146;28;19913;-57
2021/05/10 12:52:51;;;;;;;0.55;0.30;;;24.60;42.80;;;;;;5008712;28;20169;-60
2021/05/10 12:55:21;;;;;;;0.65;0.30;;;24.70;42.90;;;;;;5006831;28;20065;-57
2021/05/10 12:57:48;;;;;;;0.45;0.30;;;24.70;42.90;;;;;;5011872;28;20108;-52
2021/05/10 13:00:30;;;;;;;0.50;0.40;;;24.70;42.90;;;;;;5007731;28;20084;-53
2021/05/10 13:02:58;;;;;;;0.43;0.30;;;24.70;42.80;;;;;;5006885;28;20050;-54
2021/05/10 13:05:35;;;;;;;0.70;0.30;;;24.70;42.80;;;;;;5003518;28;20030;-58